Time;durP1;ratioP1;P1;durP2;ratioP2;P2;SDS_P1;SDS_P2;PMS_P1;PMS_P2;Temp;Humidity;BMP_temperature;BMP_pressure;BME280_temperature;BME280_humidity;BME280_pressure;Samples;Min_cycle;Max_cycle;Signal;HPM_P1;HPM_P2
2022/07/26 00:00:15;;;;;;;1999.90;999.90;;;19.90;99.90;;;;;;5053078;28;20278;-67
2022/07/26 00:02:41;;;;;;;1999.90;999.90;;;19.90;99.90;;;;;;5053240;28;20546;-66
2022/07/26 00:05:07;;;;;;;1999.90;999.90;;;19.90;99.90;;;;;;5053072;28;20493;-67
2022/07/26 00:07:33;;;;;;;1999.90;999.90;;;19.80;99.90;;;;;;5052778;28;20193;-66
2022/07/26 00:09:58;;;;;;;1999.90;999.90;;;19.80;99.90;;;;;;5052958;28;20433;-66
2022/07/26 00:12:24;;;;;;;1999.90;999.90;;;19.70;99.90;;;;;;5052945;28;20174;-67
2022/07/26 00:14:50;;;;;;;1999.90;999.90;;;19.60;99.90;;;;;;5052966;28;20673;-66
2022/07/26 00:17:15;;;;;;;1999.90;999.90;;;19.60;99.90;;;;;;5052589;28;20181;-67
2022/07/26 00:19:41;;;;;;;1999.90;999.90;;;19.60;99.90;;;;;;5052706;28;20191;-67
2022/07/26 00:24:51;;;;;;;1999.90;999.90;;;19.50;99.90;;;;;;5052969;28;20175;-67
2022/07/26 00:27:16;;;;;;;1999.90;999.90;;;19.40;99.90;;;;;;5052412;28;20414;-66
2022/07/26 00:29:42;;;;;;;1999.90;999.90;;;19.40;99.90;;;;;;5052602;28;20199;-67
2022/07/26 00:32:08;;;;;;;1999.90;999.90;;;19.40;99.90;;;;;;5052594;28;20533;-67
2022/07/26 00:34:33;;;;;;;1999.90;999.90;;;19.40;99.90;;;;;;5052602;28;20179;-67
2022/07/26 00:36:59;;;;;;;1999.90;999.90;;;19.40;99.90;;;;;;5052360;28;20187;-67
2022/07/26 00:39:25;;;;;;;1999.90;999.90;;;19.30;99.90;;;;;;5052340;28;20183;-67
2022/07/26 00:41:51;;;;;;;1999.90;999.90;;;19.20;99.90;;;;;;5052400;28;20457;-66
2022/07/26 00:44:17;;;;;;;1999.90;999.90;;;19.20;99.90;;;;;;5052401;28;20167;-67
2022/07/26 00:46:43;;;;;;;1999.90;999.90;;;19.10;99.90;;;;;;5052062;28;20501;-66
2022/07/26 00:49:09;;;;;;;1999.90;999.90;;;19.10;99.90;;;;;;5052283;28;20225;-66
2022/07/26 00:51:35;;;;;;;1999.90;999.90;;;19.10;99.90;;;;;;5051826;28;20807;-67
2022/07/26 00:54:02;;;;;;;1999.90;999.90;;;19.10;99.90;;;;;;5052370;28;20414;-67
2022/07/26 00:56:28;;;;;;;1999.90;999.90;;;19.00;99.90;;;;;;5067095;28;20420;-67
2022/07/26 00:58:54;;;;;;;1999.90;999.90;;;19.00;99.90;;;;;;5053239;28;20399;-66
2022/07/26 01:01:20;;;;;;;1999.90;999.90;;;18.90;99.90;;;;;;5051977;28;20471;-66
2022/07/26 01:03:49;;;;;;;1999.90;999.90;;;18.90;99.90;;;;;;5052036;28;20199;-66
2022/07/26 01:06:14;;;;;;;1999.90;999.90;;;18.80;99.90;;;;;;5052318;28;20162;-67
2022/07/26 01:08:40;;;;;;;1999.90;999.90;;;18.70;99.90;;;;;;5054032;28;20415;-67
2022/07/26 01:11:06;;;;;;;1999.90;999.90;;;18.70;99.90;;;;;;5053713;28;20200;-67
2022/07/26 01:13:33;;;;;;;1999.90;999.90;;;18.60;99.90;;;;;;5053218;28;20542;-67
2022/07/26 01:15:58;;;;;;;1999.90;999.90;;;18.50;99.90;;;;;;5053093;28;20536;-67
2022/07/26 01:18:24;;;;;;;1999.90;999.90;;;18.50;99.90;;;;;;5053350;28;20399;-67
2022/07/26 01:20:51;;;;;;;1999.90;999.90;;;18.40;99.90;;;;;;5070542;28;20209;-67
2022/07/26 01:23:18;;;;;;;1999.90;999.90;;;18.40;99.90;;;;;;5070828;28;20167;-67
2022/07/26 01:25:43;;;;;;;1999.90;999.90;;;18.40;99.90;;;;;;5071240;28;20412;-68
2022/07/26 01:28:09;;;;;;;1999.90;999.90;;;18.30;99.90;;;;;;5071792;28;20419;-68
2022/07/26 01:30:35;;;;;;;1999.90;999.90;;;18.30;99.90;;;;;;5072163;28;20770;-66
2022/07/26 01:33:01;;;;;;;1999.90;999.90;;;18.40;99.90;;;;;;5071744;28;20182;-65
2022/07/26 01:35:26;;;;;;;1999.90;999.90;;;18.40;99.90;;;;;;5070876;28;20409;-66
2022/07/26 01:37:53;;;;;;;1999.90;999.90;;;18.40;99.90;;;;;;5070773;28;20181;-67
2022/07/26 01:40:18;;;;;;;1999.90;999.90;;;18.40;99.90;;;;;;5070931;28;20768;-66
2022/07/26 01:42:44;;;;;;;1999.90;999.90;;;18.30;99.90;;;;;;5058555;28;20399;-67
2022/07/26 01:45:10;;;;;;;1999.90;999.90;;;18.20;99.90;;;;;;5052232;28;20169;-67
2022/07/26 01:47:37;;;;;;;1999.90;999.90;;;18.20;99.90;;;;;;5052405;28;20227;-68
2022/07/26 01:50:05;;;;;;;1999.90;999.90;;;18.30;99.90;;;;;;5056210;28;20507;-67
2022/07/26 01:52:32;;;;;;;1999.90;999.90;;;18.30;99.90;;;;;;5051999;28;20426;-67
2022/07/26 01:54:57;;;;;;;1999.90;999.90;;;18.30;99.90;;;;;;5058857;28;20861;-68
2022/07/26 01:57:23;;;;;;;1999.90;999.90;;;18.30;99.90;;;;;;5057454;28;20415;-67
2022/07/26 01:59:49;;;;;;;1999.90;999.90;;;18.30;99.90;;;;;;5052454;28;20197;-67
2022/07/26 02:02:14;;;;;;;1999.90;999.90;;;18.30;99.90;;;;;;5052318;28;20199;-68
2022/07/26 02:04:58;;;;;;;1999.90;999.90;;;18.40;99.90;;;;;;5056121;28;20225;-67
2022/07/26 02:07:29;;;;;;;1999.90;999.90;;;18.40;99.90;;;;;;5055663;28;20174;-67
2022/07/26 02:09:55;;;;;;;1999.90;999.90;;;18.40;99.90;;;;;;5055334;28;20417;-67
2022/07/26 02:12:22;;;;;;;1999.90;999.90;;;18.40;99.90;;;;;;5055234;28;20457;-66
2022/07/26 02:14:47;;;;;;;1999.90;999.90;;;18.40;99.90;;;;;;5067786;28;20464;-67
2022/07/26 02:17:13;;;;;;;1999.90;999.90;;;18.40;99.90;;;;;;5054998;28;20817;-68
2022/07/26 02:19:39;;;;;;;1999.90;999.90;;;18.40;99.90;;;;;;5055130;28;20469;-68
2022/07/26 02:22:05;;;;;;;1999.90;999.90;;;18.50;99.90;;;;;;5055551;28;20234;-67
2022/07/26 02:24:31;;;;;;;1999.90;999.90;;;18.40;99.90;;;;;;5055609;28;20166;-67
2022/07/26 02:26:58;;;;;;;1999.90;999.90;;;18.50;99.90;;;;;;5069512;28;20175;-67
2022/07/26 02:29:25;;;;;;;1999.90;999.90;;;18.50;99.90;;;;;;5067078;28;20677;-66
2022/07/26 02:31:52;;;;;;;1999.90;999.90;;;18.60;99.90;;;;;;5055065;28;20458;-67
2022/07/26 02:34:19;;;;;;;1999.90;999.90;;;18.60;99.90;;;;;;5055363;28;20411;-67
2022/07/26 02:36:44;;;;;;;1999.90;999.90;;;18.50;99.90;;;;;;5054534;28;20408;-67
2022/07/26 02:39:11;;;;;;;1999.90;999.90;;;18.60;99.90;;;;;;5054876;28;20517;-68
2022/07/26 02:41:37;;;;;;;1999.90;999.90;;;18.50;99.90;;;;;;5062572;28;20199;-67
2022/07/26 02:44:03;;;;;;;1999.90;999.90;;;18.50;99.90;;;;;;5063478;28;20417;-67
2022/07/26 02:46:29;;;;;;;1999.90;999.90;;;18.50;99.90;;;;;;5054920;28;20394;-67
2022/07/26 02:48:54;;;;;;;1999.90;999.90;;;18.50;99.90;;;;;;5061148;28;20401;-66
2022/07/26 02:51:20;;;;;;;1999.90;999.90;;;18.50;99.90;;;;;;5072499;28;20206;-67
2022/07/26 02:53:46;;;;;;;1999.90;999.90;;;18.40;99.90;;;;;;5073724;28;20173;-67
2022/07/26 02:56:11;;;;;;;1999.90;999.90;;;18.40;99.90;;;;;;5073830;28;20183;-67
2022/07/26 02:58:37;;;;;;;1999.90;999.90;;;18.40;99.90;;;;;;5056107;28;20176;-67
2022/07/26 03:01:03;;;;;;;1999.90;999.90;;;18.30;99.90;;;;;;5054398;28;20208;-67
2022/07/26 03:03:29;;;;;;;1999.90;999.90;;;18.30;99.90;;;;;;5072480;28;20175;-66
2022/07/26 03:05:55;;;;;;;1999.90;999.90;;;18.30;99.90;;;;;;5058209;28;20474;-68
2022/07/26 03:08:21;;;;;;;1999.90;999.90;;;18.30;99.90;;;;;;5066780;28;20400;-68
2022/07/26 03:10:47;;;;;;;1999.90;999.90;;;18.20;99.90;;;;;;5054249;28;20617;-66
2022/07/26 03:13:13;;;;;;;1999.90;999.90;;;18.20;99.90;;;;;;5053986;28;20406;-67
2022/07/26 03:15:39;;;;;;;1999.90;999.90;;;18.20;99.90;;;;;;5058913;28;20630;-67
2022/07/26 03:18:04;;;;;;;1999.90;999.90;;;18.20;99.90;;;;;;5055253;28;20510;-67
2022/07/26 03:20:30;;;;;;;1999.90;999.90;;;18.30;99.90;;;;;;5053882;28;20466;-67
2022/07/26 03:22:56;;;;;;;1999.90;999.90;;;18.20;99.90;;;;;;5053945;28;20166;-67
2022/07/26 03:25:21;;;;;;;1999.90;999.90;;;18.10;99.90;;;;;;5054489;28;20520;-67
2022/07/26 03:27:47;;;;;;;1999.90;999.90;;;18.10;99.90;;;;;;5054760;28;20165;-67
2022/07/26 03:30:13;;;;;;;1999.90;999.90;;;18.10;99.90;;;;;;5054598;28;20188;-67
2022/07/26 03:32:39;;;;;;;1999.90;999.90;;;18.10;99.90;;;;;;5054236;28;20160;-67
2022/07/26 03:35:07;;;;;;;1999.90;999.90;;;18.10;99.90;;;;;;5056129;28;20455;-67
2022/07/26 03:37:33;;;;;;;1999.90;999.90;;;18.10;99.90;;;;;;5059684;28;20173;-67
2022/07/26 03:39:58;;;;;;;1999.90;999.90;;;18.10;99.90;;;;;;5053560;28;20942;-67
2022/07/26 03:42:24;;;;;;;1999.90;999.90;;;18.10;99.90;;;;;;5068956;28;20191;-66
2022/07/26 03:44:50;;;;;;;1999.90;999.90;;;18.10;99.90;;;;;;5072420;28;20198;-67
2022/07/26 03:47:15;;;;;;;1999.90;999.90;;;18.10;99.90;;;;;;5061112;28;20674;-64
2022/07/26 03:49:41;;;;;;;1999.90;999.90;;;18.10;99.90;;;;;;5053479;28;20238;-65
2022/07/26 03:52:07;;;;;;;1999.90;999.90;;;18.10;99.90;;;;;;5053477;28;20170;-64
2022/07/26 03:54:32;;;;;;;1999.90;999.90;;;18.10;99.90;;;;;;5053343;28;20204;-64
2022/07/26 03:56:58;;;;;;;1999.90;999.90;;;18.10;99.90;;;;;;5053093;28;20232;-65
2022/07/26 03:59:24;;;;;;;1999.90;999.90;;;18.10;99.90;;;;;;5053230;28;20538;-65
2022/07/26 04:01:50;;;;;;;1999.90;999.90;;;18.10;99.90;;;;;;5053262;28;20834;-65
2022/07/26 04:04:17;;;;;;;1999.90;999.90;;;18.10;99.90;;;;;;5064293;28;20383;-65
2022/07/26 04:06:44;;;;;;;1999.90;999.90;;;18.10;99.90;;;;;;5058062;28;20456;-65
2022/07/26 04:09:10;;;;;;;1999.90;999.90;;;18.10;99.90;;;;;;5068244;28;20409;-64
2022/07/26 04:11:36;;;;;;;1999.90;999.90;;;18.10;99.90;;;;;;5053027;28;20484;-65
2022/07/26 04:14:02;;;;;;;1999.90;999.90;;;18.10;99.90;;;;;;5053324;28;20774;-65
2022/07/26 04:16:27;;;;;;;1999.90;999.90;;;18.10;99.90;;;;;;5053037;28;20260;-65
2022/07/26 04:18:53;;;;;;;1999.90;999.90;;;18.10;99.90;;;;;;5053202;28;20172;-65
2022/07/26 04:21:19;;;;;;;1999.90;999.90;;;18.10;99.90;;;;;;5052908;28;20589;-65
2022/07/26 04:23:45;;;;;;;1999.90;999.90;;;18.10;99.90;;;;;;5053120;28;20177;-65
2022/07/26 04:26:12;;;;;;;1999.90;999.90;;;18.00;99.90;;;;;;5072193;28;20412;-64
2022/07/26 04:28:41;;;;;;;1999.90;999.90;;;18.00;99.90;;;;;;5070706;28;20579;-65
2022/07/26 04:31:07;;;;;;;1999.90;999.90;;;18.10;99.90;;;;;;5055200;28;20956;-65
2022/07/26 04:33:32;;;;;;;1999.90;999.90;;;18.10;99.90;;;;;;5052961;28;20450;-65
2022/07/26 04:35:58;;;;;;;1999.90;999.90;;;18.10;99.90;;;;;;5052657;28;20448;-65
2022/07/26 04:38:25;;;;;;;1999.90;999.90;;;18.10;99.90;;;;;;5053381;28;20270;-65
2022/07/26 04:40:51;;;;;;;1999.90;999.90;;;18.10;99.90;;;;;;5053387;28;20453;-66
2022/07/26 04:43:18;;;;;;;1999.90;999.90;;;18.10;99.90;;;;;;5053501;28;20462;-65
2022/07/26 04:45:44;;;;;;;1999.90;999.90;;;18.20;99.90;;;;;;5063346;28;20409;-65
2022/07/26 04:48:10;;;;;;;1999.90;999.90;;;18.20;99.90;;;;;;5056061;28;20392;-65
2022/07/26 04:50:36;;;;;;;1999.90;999.90;;;18.20;99.90;;;;;;5056851;28;20435;-65
2022/07/26 04:53:02;;;;;;;1999.90;999.90;;;18.30;99.90;;;;;;5070808;28;20411;-66
2022/07/26 04:55:30;;;;;;;1999.90;999.90;;;18.30;99.90;;;;;;5072194;28;20240;-64
2022/07/26 04:57:56;;;;;;;1999.90;999.90;;;18.30;99.90;;;;;;5058312;28;20177;-64
2022/07/26 05:00:23;;;;;;;1999.90;999.90;;;18.30;99.90;;;;;;5072110;28;20461;-64
2022/07/26 05:02:54;;;;;;;1999.90;999.90;;;18.30;99.90;;;;;;5072331;28;20407;-65
2022/07/26 05:05:21;;;;;;;1999.90;999.90;;;18.40;99.90;;;;;;5072772;28;20456;-64
2022/07/26 05:07:52;;;;;;;1999.90;999.90;;;18.40;99.90;;;;;;5055314;28;20430;-64
2022/07/26 05:10:18;;;;;;;1999.90;999.90;;;18.40;99.90;;;;;;5051943;28;20418;-65
2022/07/26 05:12:45;;;;;;;1999.90;999.90;;;18.40;99.90;;;;;;5052101;28;20828;-65
2022/07/26 05:15:11;;;;;;;1999.90;999.90;;;18.30;99.90;;;;;;5051950;28;20407;-64
2022/07/26 05:17:38;;;;;;;1999.90;999.90;;;18.30;99.90;;;;;;5051617;28;20408;-65
2022/07/26 05:20:06;;;;;;;1999.90;999.90;;;18.40;99.90;;;;;;5051759;28;20828;-65
2022/07/26 05:22:32;;;;;;;1999.90;999.90;;;18.40;99.90;;;;;;5051882;28;20413;-64
2022/07/26 05:24:58;;;;;;;1999.90;999.90;;;18.40;99.90;;;;;;5052324;28;20774;-65
2022/07/26 05:27:24;;;;;;;1999.90;999.90;;;18.40;99.90;;;;;;5068534;28;20476;-66
2022/07/26 05:29:49;;;;;;;1999.90;999.90;;;18.40;99.90;;;;;;5070759;28;20205;-64
2022/07/26 05:32:15;;;;;;;1999.90;999.90;;;18.40;99.90;;;;;;5072008;28;20178;-64
2022/07/26 05:34:41;;;;;;;1999.90;999.90;;;18.40;99.90;;;;;;5056605;28;20173;-65
2022/07/26 05:37:07;;;;;;;1999.90;999.90;;;18.50;99.90;;;;;;5072340;28;20177;-64
2022/07/26 05:39:32;;;;;;;1999.90;999.90;;;18.30;99.90;;;;;;5070490;28;20834;-64
2022/07/26 05:41:58;;;;;;;1999.90;999.90;;;18.40;99.90;;;;;;5056058;28;20463;-65
2022/07/26 05:44:24;;;;;;;1999.90;999.90;;;18.40;99.90;;;;;;5055769;28;20817;-64
2022/07/26 05:46:49;;;;;;;1999.90;999.90;;;18.40;99.90;;;;;;5055475;28;20254;-65
2022/07/26 05:49:15;;;;;;;1999.90;999.90;;;18.40;99.90;;;;;;5055730;28;20174;-65
2022/07/26 05:51:41;;;;;;;1999.90;999.90;;;18.40;99.90;;;;;;5055703;28;20407;-64
2022/07/26 05:54:07;;;;;;;1999.90;999.90;;;18.50;99.90;;;;;;5055519;28;20643;-65
2022/07/26 05:56:32;;;;;;;1999.90;999.90;;;18.50;99.90;;;;;;5063874;28;20205;-66
2022/07/26 05:58:58;;;;;;;1999.90;999.90;;;18.50;99.90;;;;;;5072421;28;20189;-66
2022/07/26 06:01:24;;;;;;;1999.90;999.90;;;18.50;99.90;;;;;;5067468;28;20591;-66
2022/07/26 06:03:49;;;;;;;1999.90;999.90;;;18.40;99.90;;;;;;5056315;28;20173;-65
2022/07/26 06:06:16;;;;;;;1999.90;999.90;;;18.30;99.90;;;;;;5055246;28;20185;-65
2022/07/26 06:08:42;;;;;;;1999.90;999.90;;;18.30;99.90;;;;;;5056683;28;20206;-65
2022/07/26 06:11:08;;;;;;;1999.90;999.90;;;18.20;99.90;;;;;;5073978;28;20432;-65
2022/07/26 06:13:34;;;;;;;1999.90;999.90;;;18.20;99.90;;;;;;5072075;28;20516;-64
2022/07/26 06:16:00;;;;;;;1999.90;999.90;;;18.20;99.90;;;;;;5069968;28;20270;-65
2022/07/26 06:18:25;;;;;;;1999.90;999.90;;;18.20;99.90;;;;;;5056501;28;20166;-65
2022/07/26 06:20:51;;;;;;;1999.90;999.90;;;18.20;99.90;;;;;;5055682;28;20206;-66
2022/07/26 06:23:17;;;;;;;1999.90;999.90;;;18.20;99.90;;;;;;5055895;28;20174;-65
2022/07/26 06:25:42;;;;;;;1999.90;999.90;;;18.20;99.90;;;;;;5055773;28;20656;-65
2022/07/26 06:28:09;;;;;;;1999.90;999.90;;;18.30;99.90;;;;;;5055679;28;20223;-65
2022/07/26 06:30:36;;;;;;;1999.90;999.90;;;18.30;99.90;;;;;;5055642;28;20196;-65
2022/07/26 06:33:02;;;;;;;1999.90;999.90;;;18.40;99.90;;;;;;5055921;28;20480;-65
2022/07/26 06:35:31;;;;;;;1999.90;999.90;;;18.40;99.90;;;;;;5056039;28;20810;-66
2022/07/26 06:37:58;;;;;;;1999.90;999.90;;;18.50;99.90;;;;;;5055375;28;20401;-65
2022/07/26 06:40:24;;;;;;;1999.90;999.90;;;18.60;99.90;;;;;;5055580;28;20426;-65
2022/07/26 06:42:50;;;;;;;1999.90;999.90;;;18.60;99.90;;;;;;5055968;28;20412;-65
2022/07/26 06:45:16;;;;;;;1999.90;999.90;;;18.60;99.90;;;;;;5054842;28;20492;-66
2022/07/26 06:47:41;;;;;;;1999.90;999.90;;;18.70;99.90;;;;;;5054581;28;20181;-65
2022/07/26 06:50:08;;;;;;;1999.90;999.90;;;18.70;99.90;;;;;;5053704;28;20213;-64
2022/07/26 06:52:34;;;;;;;1999.90;999.90;;;18.80;99.90;;;;;;5054819;28;20308;-65
2022/07/26 06:55:00;;;;;;;1999.90;999.90;;;18.80;99.90;;;;;;5056077;28;20885;-65
2022/07/26 06:57:26;;;;;;;1999.90;999.90;;;18.90;99.90;;;;;;5068200;28;20211;-65
2022/07/26 06:59:52;;;;;;;1999.90;999.90;;;18.90;99.90;;;;;;5073317;28;20433;-65
2022/07/26 07:02:18;;;;;;;1999.90;999.90;;;18.90;99.90;;;;;;5072984;28;20444;-64
2022/07/26 07:04:44;;;;;;;1999.90;999.90;;;18.90;99.90;;;;;;5057416;28;20413;-65
2022/07/26 07:07:10;;;;;;;1999.90;999.90;;;18.90;99.90;;;;;;5054917;28;20837;-65
2022/07/26 07:09:36;;;;;;;1999.90;999.90;;;18.90;99.90;;;;;;5072211;28;20193;-64
2022/07/26 07:12:06;;;;;;;1999.90;999.90;;;18.90;99.90;;;;;;5074501;28;20590;-64
2022/07/26 07:14:32;;;;;;;1999.90;999.90;;;18.90;99.90;;;;;;5071931;28;20429;-65
2022/07/26 07:16:59;;;;;;;1999.90;999.90;;;18.90;99.90;;;;;;5073672;28;20479;-65
2022/07/26 07:19:24;;;;;;;1999.90;999.90;;;18.90;99.90;;;;;;5074229;28;20428;-65
2022/07/26 07:21:51;;;;;;;1999.90;999.90;;;19.00;99.90;;;;;;5068801;28;20455;-65
2022/07/26 07:24:17;;;;;;;1999.90;999.90;;;19.00;99.90;;;;;;5054574;28;20586;-65
2022/07/26 07:26:43;;;;;;;1999.90;999.90;;;19.00;99.90;;;;;;5054240;28;20411;-65
2022/07/26 07:29:13;;;;;;;1999.90;999.90;;;19.00;99.90;;;;;;5055041;28;21048;-65
2022/07/26 07:31:40;;;;;;;1999.90;999.90;;;19.00;99.90;;;;;;5054538;28;20186;-65
2022/07/26 07:34:05;;;;;;;1999.90;999.90;;;19.00;99.90;;;;;;5054177;28;20430;-66
2022/07/26 07:36:31;;;;;;;1999.90;999.90;;;19.00;99.90;;;;;;5053660;28;20404;-64
2022/07/26 07:38:57;;;;;;;1999.90;999.90;;;19.00;99.90;;;;;;5054174;28;20204;-65
2022/07/26 07:41:22;;;;;;;1999.90;999.90;;;19.10;99.90;;;;;;5053432;28;20215;-64
2022/07/26 07:43:48;;;;;;;1999.90;999.90;;;19.20;99.90;;;;;;5053670;28;20204;-64
2022/07/26 07:46:13;;;;;;;1999.90;999.90;;;19.10;99.90;;;;;;5053229;28;20173;-64
2022/07/26 07:48:40;;;;;;;1999.90;999.90;;;19.10;99.90;;;;;;5053395;28;20170;-64
2022/07/26 07:51:06;;;;;;;1999.90;999.90;;;19.10;99.90;;;;;;5053324;28;20661;-65
2022/07/26 07:53:32;;;;;;;1999.90;999.90;;;19.10;99.90;;;;;;5053353;28;20412;-65
2022/07/26 07:55:58;;;;;;;1999.90;999.90;;;19.10;99.90;;;;;;5053061;28;20418;-65
2022/07/26 07:58:24;;;;;;;1999.90;999.90;;;19.20;99.90;;;;;;5053661;28;20415;-65
2022/07/26 08:00:49;;;;;;;1999.90;999.90;;;19.20;99.90;;;;;;5052537;28;20282;-66
2022/07/26 08:03:15;;;;;;;1999.90;999.90;;;19.20;99.90;;;;;;5053108;28;20492;-65
2022/07/26 08:05:41;;;;;;;1999.90;999.90;;;19.30;99.90;;;;;;5053158;28;20175;-65
2022/07/26 08:08:07;;;;;;;1999.90;999.90;;;19.40;99.90;;;;;;5053018;28;20485;-64
2022/07/26 08:10:32;;;;;;;1999.90;999.90;;;19.40;99.90;;;;;;5057481;28;20193;-63
2022/07/26 08:12:58;;;;;;;1999.90;999.90;;;19.40;99.90;;;;;;5072962;28;20174;-64
2022/07/26 08:15:26;;;;;;;1999.90;999.90;;;19.50;99.90;;;;;;5072775;28;20652;-64
2022/07/26 08:17:52;;;;;;;1999.90;999.90;;;19.50;99.90;;;;;;5071821;28;20413;-65
2022/07/26 08:20:18;;;;;;;1999.90;999.90;;;19.60;99.90;;;;;;5056300;28;20448;-65
2022/07/26 08:22:43;;;;;;;1999.90;999.90;;;19.80;99.90;;;;;;5067565;28;20412;-66
2022/07/26 08:25:09;;;;;;;1999.90;999.90;;;20.00;99.90;;;;;;5071936;28;20156;-65
2022/07/26 08:27:35;;;;;;;1999.90;999.90;;;20.10;99.90;;;;;;5052925;28;20266;-65
2022/07/26 08:30:01;;;;;;;1999.90;999.90;;;20.30;99.90;;;;;;5052745;28;20657;-66
2022/07/26 08:32:27;;;;;;;1999.90;999.90;;;20.50;99.90;;;;;;5052804;28;20176;-65
2022/07/26 08:34:52;;;;;;;1999.90;999.90;;;20.80;99.90;;;;;;5066420;28;20417;-65
2022/07/26 08:37:18;;;;;;;1999.90;999.90;;;21.10;99.90;;;;;;5071330;28;20180;-65
2022/07/26 08:39:56;;;;;;;1999.90;999.90;;;21.30;99.90;;;;;;5072997;28;20583;-65
2022/07/26 08:42:21;;;;;;;1999.90;999.90;;;21.50;99.90;;;;;;5052434;28;20229;-65
2022/07/26 08:44:48;;;;;;;1999.90;999.90;;;21.50;99.90;;;;;;5052470;28;20503;-65
2022/07/26 08:47:18;;;;;;;1999.90;999.90;;;21.70;99.90;;;;;;5052412;28;20178;-65
2022/07/26 08:49:44;;;;;;;1999.90;999.90;;;21.60;99.90;;;;;;5052339;28;20486;-66
2022/07/26 08:52:11;;;;;;;1999.90;999.90;;;21.70;99.90;;;;;;5052295;28;20775;-66
2022/07/26 08:54:46;;;;;;;1999.90;999.90;;;21.80;99.90;;;;;;5052139;28;20413;-65
2022/07/26 08:57:12;;;;;;;1999.90;999.90;;;21.80;99.90;;;;;;5051786;28;20400;-65
2022/07/26 08:59:38;;;;;;;1999.90;999.90;;;21.70;99.90;;;;;;5052042;28;20454;-65
2022/07/26 09:02:07;;;;;;;1999.90;999.90;;;21.70;99.90;;;;;;5052076;28;20452;-65
2022/07/26 09:04:35;;;;;;;1999.90;999.90;;;21.70;99.90;;;;;;5052116;28;20408;-64
2022/07/26 09:07:14;;;;;;;1999.90;999.90;;;21.70;99.90;;;;;;5051837;28;20442;-65
2022/07/26 09:10:01;;;;;;;1999.90;999.90;;;21.80;99.90;;;;;;5052294;28;20424;-65
2022/07/26 09:12:29;;;;;;;1999.90;999.90;;;22.00;99.90;;;;;;5052435;28;20386;-65
2022/07/26 09:14:55;;;;;;;1999.90;999.90;;;22.10;99.90;;;;;;5052434;28;20392;-65
2022/07/26 09:17:23;;;;;;;1999.90;999.90;;;22.20;99.90;;;;;;5052068;28;20392;-65
2022/07/26 09:20:06;;;;;;;1999.90;999.90;;;22.30;99.90;;;;;;5052170;28;20489;-65
2022/07/26 09:22:33;;;;;;;1999.90;999.90;;;22.60;99.90;;;;;;5051785;28;20480;-64
2022/07/26 09:24:59;;;;;;;1999.90;999.90;;;22.80;99.90;;;;;;5051912;28;20413;-64
2022/07/26 09:27:34;;;;;;;1999.90;999.90;;;22.90;99.90;;;;;;5051607;28;20379;-65
2022/07/26 09:30:05;;;;;;;1999.90;999.90;;;23.10;99.90;;;;;;5051837;28;20187;-65
2022/07/26 09:32:31;;;;;;;1999.90;999.90;;;23.30;99.90;;;;;;5051983;28;20384;-65
2022/07/26 09:35:17;;;;;;;1999.90;999.90;;;23.50;99.90;;;;;;5051937;28;20475;-65
2022/07/26 09:37:43;;;;;;;1999.90;999.90;;;23.70;99.90;;;;;;5051441;28;20182;-65
2022/07/26 09:40:11;;;;;;;1999.90;999.90;;;23.80;99.90;;;;;;5051667;28;20405;-65
2022/07/26 09:42:51;;;;;;;1999.90;999.90;;;23.90;99.90;;;;;;5051721;28;20438;-64
2022/07/26 09:45:17;;;;;;;1999.90;999.90;;;23.50;99.90;;;;;;5051680;28;20384;-64
2022/07/26 09:47:42;;;;;;;1999.90;999.90;;;23.10;99.90;;;;;;5051388;28;20410;-65
2022/07/26 09:50:26;;;;;;;1999.90;999.90;;;22.90;99.90;;;;;;5051689;28;20242;-65
2022/07/26 09:53:01;;;;;;;1999.90;999.90;;;22.90;99.90;;;;;;5051705;28;20385;-65
2022/07/26 09:55:28;;;;;;;1999.90;999.90;;;23.00;99.90;;;;;;5051521;28;20466;-64
2022/07/26 09:57:54;;;;;;;1999.90;999.90;;;23.10;99.90;;;;;;5051274;28;20388;-64
2022/07/26 10:00:20;;;;;;;1999.90;999.90;;;23.30;99.90;;;;;;5051366;28;20400;-65
2022/07/26 10:02:46;;;;;;;1999.90;999.90;;;23.40;99.90;;;;;;5051543;28;20880;-64
2022/07/26 10:05:11;;;;;;;1999.90;999.90;;;23.50;99.90;;;;;;5052535;28;20470;-65
2022/07/26 10:07:37;;;;;;;1999.90;999.90;;;23.40;99.90;;;;;;5051831;28;20215;-65
2022/07/26 10:10:07;;;;;;;1999.90;999.90;;;23.30;99.90;;;;;;5051448;28;20199;-65
2022/07/26 10:12:34;;;;;;;1999.90;999.90;;;23.50;99.90;;;;;;5051411;28;20405;-65
2022/07/26 10:15:00;;;;;;;1999.90;999.90;;;23.70;99.90;;;;;;5051650;28;20497;-65
2022/07/26 10:17:26;;;;;;;1999.90;999.90;;;23.90;99.90;;;;;;5051499;28;20885;-65
2022/07/26 10:19:54;;;;;;;1999.90;999.90;;;24.00;99.90;;;;;;5051448;28;20207;-65
2022/07/26 10:22:22;;;;;;;1999.90;999.90;;;24.20;99.90;;;;;;5052079;28;20191;-65
2022/07/26 10:24:49;;;;;;;1999.90;999.90;;;24.50;99.90;;;;;;5053994;28;20373;-65
2022/07/26 10:27:40;;;;;;;1999.90;999.90;;;24.50;99.90;;;;;;5055210;28;20471;-66
2022/07/26 10:30:15;;;;;;;1999.90;999.90;;;24.30;99.90;;;;;;5055159;28;20446;-65
2022/07/26 10:32:55;;;;;;;1999.90;999.90;;;24.30;99.90;;;;;;5056268;28;20413;-65
2022/07/26 10:35:40;;;;;;;1999.90;999.90;;;24.20;99.90;;;;;;5055289;28;20377;-64
2022/07/26 10:38:08;;;;;;;1999.90;999.90;;;24.30;99.90;;;;;;5054678;28;20372;-65
2022/07/26 10:40:35;;;;;;;1999.90;999.90;;;24.70;99.90;;;;;;5054798;28;20400;-66
2022/07/26 10:43:14;;;;;;;1999.90;999.90;;;25.20;99.90;;;;;;5059218;28;20406;-65
2022/07/26 10:45:41;;;;;;;1999.90;999.90;;;25.50;99.90;;;;;;5075419;28;20369;-65
2022/07/26 10:48:19;;;;;;;1999.90;999.90;;;25.80;99.90;;;;;;5075386;28;20469;-65
2022/07/26 10:50:51;;;;;;;1999.90;999.90;;;25.80;99.90;;;;;;5060241;28;20425;-65
2022/07/26 10:53:23;;;;;;;1999.90;999.90;;;25.90;99.90;;;;;;5054530;28;20387;-66
2022/07/26 10:55:50;;;;;;;1999.90;999.90;;;26.20;99.90;;;;;;5054512;28;20743;-66
2022/07/26 10:58:16;;;;;;;1999.90;999.90;;;26.50;99.90;;;;;;5054187;28;20915;-65
2022/07/26 11:00:57;;;;;;;1999.90;999.90;;;26.60;99.90;;;;;;5054474;28;20457;-65
2022/07/26 11:03:23;;;;;;;1999.90;999.90;;;26.50;99.90;;;;;;5054491;28;20439;-65
2022/07/26 11:05:49;;;;;;;1999.90;999.90;;;26.00;99.90;;;;;;5054219;28;20798;-65
2022/07/26 11:08:15;;;;;;;1999.90;999.90;;;25.20;99.90;;;;;;5054114;28;20164;-65
2022/07/26 11:10:45;;;;;;;1999.90;999.90;;;24.30;99.90;;;;;;5054233;28;20401;-65
2022/07/26 11:13:17;;;;;;;1999.90;999.90;;;23.60;99.90;;;;;;5054425;28;20168;-64
2022/07/26 11:15:59;;;;;;;1999.90;999.90;;;22.90;99.90;;;;;;5062789;28;20746;-65
2022/07/26 11:18:29;;;;;;;1999.90;999.90;;;22.50;99.90;;;;;;5055113;28;20409;-65
2022/07/26 11:20:57;;;;;;;1999.90;999.90;;;22.30;99.90;;;;;;5054283;28;20465;-65
2022/07/26 11:23:25;;;;;;;1999.90;999.90;;;22.10;99.90;;;;;;5055573;28;20943;-65
2022/07/26 11:26:10;;;;;;;1999.90;999.90;;;22.10;99.90;;;;;;5090150;22;20471;-71
2022/07/26 11:28:58;;;;;;;1999.90;999.90;;;21.90;99.90;;;;;;5046947;28;20375;-72
2022/07/26 11:31:39;;;;;;;1999.90;999.90;;;21.90;99.90;;;;;;5050443;28;20376;-72
2022/07/26 11:34:06;;;;;;;1999.90;999.90;;;22.00;99.90;;;;;;5048184;28;20425;-71
2022/07/26 11:36:40;;;;;;;1999.90;999.90;;;21.90;99.90;;;;;;5050439;28;20451;-72
2022/07/26 11:39:09;;;;;;;1999.90;999.90;;;21.80;99.90;;;;;;5048392;28;20901;-73
2022/07/26 11:41:35;;;;;;;1999.90;999.90;;;21.70;99.90;;;;;;5033826;28;20457;-73
2022/07/26 11:44:02;;;;;;;1999.90;999.90;;;21.50;99.90;;;;;;5033901;28;20406;-73
2022/07/26 11:46:33;;;;;;;1999.90;999.90;;;21.50;99.90;;;;;;5033631;28;20430;-73
2022/07/26 11:48:59;;;;;;;1999.90;999.90;;;21.40;99.90;;;;;;5033719;28;20405;-73
2022/07/26 11:51:25;;;;;;;1999.90;999.90;;;21.20;99.90;;;;;;5034032;28;20507;-73
2022/07/26 11:53:58;;;;;;;1999.90;999.90;;;20.90;99.90;;;;;;5033532;28;20435;-72
2022/07/26 11:56:26;;;;;;;1999.90;999.90;;;20.70;99.90;;;;;;5033524;28;20196;-71
2022/07/26 11:58:54;;;;;;;1999.90;999.90;;;20.60;99.90;;;;;;5033505;28;20417;-71
2022/07/26 12:01:21;;;;;;;1999.90;999.90;;;20.40;99.90;;;;;;5033667;28;20467;-71